< < Back
Terminal Aerodrome Forecast


Current Version              Previous Versions:   1  2  3  4  5  6  7  8  9  

Terminal Aerodrome Forecast

489
FTUS44 KOHX 200600 AAA
TAFCSV
TAF AMD
KCSV 200603Z 2006/2106 00000KT P6SM BCFG SKC
      TEMPO 2010/2014 1SM BR
     FM201400 09004KT P6SM SCT250=

Latest METAR

742
SAUS70 KWBC 210356
MTRCSV
METAR KCSV 210353Z AUTO 00000KT 9SM CLR 14/04 A3018 RMK AO2 SLP207
T01390044


USA.gov is the U.S. government's official web portal to all federal, state and local government web resources and services.